createdAt,value
2022-09-11T00:01:16.656Z,20.328043263007203
2022-09-11T00:04:16.680Z,20.286290638820446
2022-09-11T00:07:17.097Z,20.279224812012764
2022-09-11T00:11:20.524Z,20.20342779541388
2022-09-11T00:14:16.706Z,20.137266044546504
2022-09-11T00:17:17.705Z,20.17516451729607
2022-09-11T00:21:17.232Z,20.170668087498143
2022-09-11T00:24:16.787Z,20.12184972117766
2022-09-11T00:27:16.573Z,20.08395127069707
2022-09-11T00:31:19.072Z,20.095513508148724
2022-09-11T00:34:17.690Z,20.016504914927737
2022-09-11T00:37:17.024Z,20.02999418207073
2022-09-11T00:41:20.431Z,19.952270336997117
2022-09-11T00:45:26.763Z,19.948416263767378
2022-09-11T00:47:19.158Z,19.941992808748275
2022-09-11T00:51:22.364Z,19.83600586658722
2022-09-11T00:54:21.487Z,19.805173324841597
2022-09-11T00:57:20.865Z,19.76470562970071
2022-09-11T01:01:16.344Z,19.774340793573355
2022-09-11T01:04:16.584Z,19.681200918997728
2022-09-11T01:07:20.151Z,19.63816390580032
2022-09-11T01:11:30.877Z,19.647156712841024
2022-09-11T01:14:34.315Z,19.58356473932954
2022-09-11T01:17:26.138Z,19.58356473932954
2022-09-11T01:21:35.969Z,19.60797377439676
2022-09-11T01:24:32.007Z,19.553374626093138
2022-09-11T01:27:37.915Z,19.546951199040997
2022-09-11T01:31:24.172Z,19.54887822710889
2022-09-11T01:34:25.169Z,19.534746688894757
2022-09-11T01:37:25.081Z,19.530892633400164
2022-09-11T01:41:22.379Z,19.52960794827168
2022-09-11T01:51:21.770Z,19.487213349236207
2022-09-11T01:54:21.254Z,19.48914037603536
2022-09-11T01:57:24.403Z,19.456380926015935
2022-09-11T02:01:21.213Z,19.487213349236207
2022-09-11T02:04:21.218Z,19.38700801207824
2022-09-11T02:07:20.981Z,19.332408996742743
2022-09-11T02:11:17.789Z,19.358744988273337
2022-09-11T02:14:23.684Z,19.360672012344004
2022-09-11T02:17:22.742Z,19.29258385333851
2022-09-11T02:21:16.587Z,19.30221896707526
2022-09-11T02:24:18.127Z,19.28102171820501
2022-09-11T02:27:22.490Z,19.241838937876402
2022-09-11T02:31:17.751Z,19.274598310434158
2022-09-11T02:34:25.577Z,19.254685749234433
2022-09-11T02:37:31.031Z,19.25404340862333
2022-09-11T02:41:23.138Z,19.250831705636028
2022-09-11T02:44:25.512Z,19.237984894823693
2022-09-11T02:47:31.561Z,19.241196597356247
2022-09-11T02:51:25.433Z,19.2668902217094
2022-09-11T02:54:27.956Z,19.23862723532111
2022-09-11T02:57:23.356Z,19.214218299616185
2022-09-11T03:01:16.598Z,19.26817490311805
2022-09-11T03:04:19.068Z,19.266247881011896
2022-09-11T03:07:17.153Z,19.25982447428696
2022-09-11T03:11:18.297Z,19.272028947453144
2022-09-11T03:14:16.752Z,19.256612771095025
2022-09-11T03:17:17.562Z,19.255970430470278
2022-09-11T03:21:16.940Z,19.184670649390682
2022-09-11T03:24:17.362Z,19.18724000989787
2022-09-11T03:27:17.943Z,19.196875112447835
2022-09-11T03:31:17.593Z,19.154480668881387
2022-09-11T03:34:18.920Z,19.053633360003367
2022-09-11T03:37:17.085Z,19.065195466160368
2022-09-11T03:41:15.999Z,19.054918038392497
2022-09-11T03:44:16.629Z,18.977837367240863
2022-09-11T03:47:16.750Z,18.964348256521863
2022-09-11T03:51:16.875Z,18.88662532430353
2022-09-11T03:54:18.105Z,18.8679975239932
2022-09-11T03:57:17.311Z,18.844231025701447
2022-09-11T04:01:16.617Z,18.807617783758996
2022-09-11T04:04:16.926Z,18.773573905384183
2022-09-11T04:07:16.914Z,18.76201183638914
2022-09-11T04:11:16.723Z,18.741457050702593
2022-09-11T04:14:17.022Z,18.6875007604307
2022-09-11T04:17:17.310Z,18.658595618126945
2022-09-11T04:21:17.892Z,18.631617493618343
2022-09-11T04:24:16.232Z,18.654099263485115
2022-09-11T04:27:16.113Z,18.598216017245523
2022-09-11T04:31:20.968Z,18.613632081735794
2022-09-11T04:34:19.247Z,18.593719665595927
2022-09-11T04:37:20.146Z,18.570595574917753
2022-09-11T04:41:18.001Z,18.556464189071267
2022-09-11T04:44:19.481Z,18.505719685310122
2022-09-11T04:47:19.295Z,18.47809927114031
2022-09-11T04:51:21.357Z,18.458829219722247
2022-09-11T04:54:17.950Z,18.435705163422973
2022-09-11T04:57:16.822Z,18.39266874100149
2022-09-11T05:01:18.825Z,18.36890236721956
2022-09-11T05:04:17.799Z,18.354771012787022
2022-09-11T05:07:17.146Z,18.308522959123728
2022-09-11T05:11:18.714Z,18.32265430635307
2022-09-11T05:14:17.634Z,18.323296640370337
2022-09-11T05:17:16.865Z,18.27255226701709
2022-09-11T05:21:18.598Z,18.277690936444923
2022-09-11T05:24:17.051Z,18.23336992220002
2022-09-11T05:27:16.885Z,18.255209259846833
2022-09-11T05:31:18.084Z,18.260990261868574
2022-09-11T05:34:17.709Z,18.284114273638988
2022-09-11T05:37:17.311Z,18.286683608643944
2022-09-11T05:41:15.948Z,18.293749280282736
2022-09-11T05:44:16.008Z,18.256493926930943
2022-09-11T05:47:16.720Z,18.248143591209374
2022-09-11T05:51:17.452Z,18.273836934346765
2022-09-11T05:54:16.360Z,18.257136260479818
2022-09-11T05:57:16.780Z,18.28347193989912
2022-09-11T06:01:20.897Z,18.339354992279915
2022-09-11T06:04:19.240Z,18.32136963833218
2022-09-11T06:07:19.294Z,18.32393897439215
2022-09-11T06:11:18.417Z,18.38881473401934
2022-09-11T06:14:18.152Z,18.372756373355877
2022-09-11T06:17:17.270Z,18.42671247645376
2022-09-11T06:21:22.194Z,18.490303639155265
2022-09-11T06:24:16.704Z,18.521778069506762
2022-09-11T06:27:17.182Z,18.530770765898342
2022-09-11T06:31:19.344Z,18.613632081735794
2022-09-11T06:34:17.892Z,18.672084683389404
2022-09-11T06:37:17.018Z,18.73182199651501
2022-09-11T06:41:16.373Z,18.78706298774059
2022-09-11T06:44:17.319Z,18.844231025701447
2022-09-11T06:47:16.937Z,18.91360352463671
2022-09-11T06:51:19.081Z,18.981049060564782
2022-09-11T06:54:17.113Z,19.035005525405087
2022-09-11T06:57:45.286Z,19.112728584729847
2022-09-11T07:01:18.513Z,19.230919149652255
2022-09-11T07:04:17.059Z,19.27781001426274
2022-09-11T07:07:17.032Z,19.369022450456487
2022-09-11T07:11:19.510Z,19.472439478469095
2022-09-11T07:14:21.565Z,19.555301654297455
2022-09-11T07:17:19.257Z,19.61118549002604
2022-09-11T07:21:19.288Z,19.713960450189553
2022-09-11T07:24:16.678Z,19.77755251509161
2022-09-11T07:27:17.367Z,19.86041496956641
2022-09-11T07:31:21.095Z,20.002373303881267
2022-09-11T07:34:18.705Z,20.064680878218496
2022-09-11T07:37:18.478Z,20.1244191082239
2022-09-11T07:41:19.811Z,20.270231942326063
2022-09-11T07:44:18.651Z,20.362730073096465
2022-09-11T07:47:17.320Z,20.42953433729708
2022-09-11T07:51:17.900Z,20.54066077035977
2022-09-11T07:54:16.955Z,20.631232125719908
2022-09-11T07:57:16.639Z,20.710883605148773
2022-09-11T08:01:18.848Z,20.858624437604156
2022-09-11T08:04:16.902Z,20.909370257299543
2022-09-11T08:07:17.523Z,21.000584333676034
2022-09-11T08:11:21.082Z,21.10336086762918
2022-09-11T08:14:18.132Z,21.180443344491596
2022-09-11T08:17:18.611Z,21.239539954433077
2022-09-11T08:21:17.271Z,21.37571924561862
2022-09-11T08:24:18.430Z,21.42132650674903
2022-09-11T08:27:17.092Z,21.522818803927294
2022-09-11T08:31:17.883Z,21.619814713017057
2022-09-11T08:34:16.560Z,21.706532997674366
2022-09-11T08:37:18.752Z,21.82087278856816
2022-09-11T08:41:29.293Z,21.932643285220546
2022-09-11T08:44:24.297Z,22.00651466604695
2022-09-11T08:47:23.810Z,22.113146504431008
2022-09-11T08:51:17.796Z,22.19986526057037
2022-09-11T08:54:24.743Z,22.289795910031536
2022-09-11T08:57:22.105Z,22.393858629934037
2022-09-11T09:01:31.222Z,22.521046560775723
2022-09-11T09:04:34.467Z,22.604553885048155
2022-09-11T09:07:27.605Z,22.742662320768524
2022-09-11T09:11:30.453Z,22.98676146543594
2022-09-11T09:14:31.712Z,23.175617570022677
2022-09-11T09:17:21.210Z,23.331070849001208
2022-09-11T09:21:26.516Z,23.535344570913093
2022-09-11T09:24:20.522Z,23.6882289781287
2022-09-11T09:27:24.644Z,23.807067875954452
2022-09-11T09:31:21.019Z,23.998495184585046
2022-09-11T09:34:19.872Z,24.087785241824985
2022-09-11T09:37:21.608Z,24.234889196803852
2022-09-11T09:41:39.635Z,24.545799650490515
2022-09-11T09:51:18.016Z,25.15927278191966
2022-09-11T09:54:20.538Z,25.43421287151805
2022-09-11T09:57:18.451Z,25.60958397127688
2022-09-11T10:01:50.877Z,25.714935271082503
2022-09-11T10:04:20.470Z,25.88324065015804
2022-09-11T10:07:20.864Z,25.987307491108368
2022-09-11T10:11:28.554Z,25.916644808321507
2022-09-11T10:14:46.800Z,25.91792958388105
2022-09-11T10:17:22.798Z,26.072745171962833
2022-09-11T10:21:25.859Z,26.35218476512382
2022-09-11T10:24:21.893Z,26.584730553828194
2022-09-11T10:27:22.011Z,26.689440592488335
2022-09-11T10:31:18.639Z,26.93997430419922
2022-09-11T10:34:19.980Z,26.821131303438232
2022-09-11T10:37:23.979Z,26.724772227887296
2022-09-11T10:41:22.938Z,26.99971706066426
2022-09-11T10:44:18.579Z,27.28943786760583
2022-09-11T10:47:25.484Z,27.503998883975235
2022-09-11T10:51:17.746Z,27.803357317337305
2022-09-11T10:54:26.468Z,27.874021469276432
2022-09-11T10:57:24.113Z,28.006998704398576
2022-09-11T11:01:17.030Z,28.239548733676564
2022-09-11T11:04:19.084Z,28.420064498720695
2022-09-11T11:07:35.934Z,28.41556766035501
2022-09-11T11:11:31.187Z,28.685378356698493
2022-09-11T11:14:37.302Z,28.81964159735808
2022-09-11T11:17:31.452Z,28.96097153896344
2022-09-11T11:21:31.637Z,29.12157401249724
2022-09-11T11:24:56.067Z,29.161403469916785
2022-09-11T11:27:32.617Z,29.32586076952366
2022-09-11T11:31:34.907Z,29.516014893704504
2022-09-11T11:34:32.826Z,29.66569730549272
2022-09-11T11:37:23.250Z,29.817307210300715
2022-09-11T11:41:23.462Z,29.995898863744515
2022-09-11T11:44:29.865Z,29.938081383510507
2022-09-11T11:47:21.769Z,29.981123281958663
2022-09-11T11:51:20.827Z,30.14622448473856
2022-09-11T11:54:25.203Z,30.2856292361329
2022-09-11T11:57:22.069Z,30.38263451206767
2022-09-11T12:01:24.586Z,30.504694278108946
2022-09-11T12:04:39.867Z,30.574718112730714
2022-09-11T12:07:25.941Z,30.675578226361903
2022-09-11T12:11:30.037Z,30.759735477022424
2022-09-11T12:14:29.178Z,30.92226840339463
2022-09-11T12:17:24.783Z,30.973662274677555
2022-09-11T12:22:13.686Z,31.219068411331683
2022-09-11T12:24:22.599Z,31.16060772694409
2022-09-11T12:28:19.769Z,31.217783560720637
2022-09-11T12:31:19.796Z,31.333420188565288
2022-09-11T12:34:23.889Z,31.363614221205445
2022-09-11T12:37:29.093Z,31.34498385945335
2022-09-11T12:41:26.666Z,31.44006298706081
2022-09-11T12:44:58.184Z,31.502378415271323
2022-09-11T12:47:21.757Z,31.5897485722352
2022-09-11T12:51:23.219Z,31.680330956128092
2022-09-11T12:54:24.751Z,31.57176059186686
2022-09-11T12:57:27.271Z,31.638573108349465
2022-09-11T13:01:24.104Z,31.622512402781286
2022-09-11T13:04:23.364Z,31.582681865236736
2022-09-11T13:07:31.352Z,31.5711181640625
2022-09-11T13:11:42.078Z,31.576900014465444
2022-09-11T13:14:52.198Z,31.722088823119794
2022-09-11T13:17:26.098Z,31.645639819699863
2022-09-11T13:21:26.341Z,31.74778598158746
2022-09-11T13:24:27.062Z,31.828089648694732
2022-09-11T13:27:24.828Z,31.768986142800713
2022-09-11T13:31:27.123Z,31.821665352711353
2022-09-11T13:34:21.809Z,31.80431975582769
2022-09-11T13:37:32.612Z,31.863423284731926
2022-09-11T13:41:24.244Z,31.84286553118227
2022-09-11T13:51:25.512Z,32.09020131258876
2022-09-11T13:54:27.415Z,32.04651598270429
2022-09-11T13:57:21.893Z,32.074140527098734
2022-09-11T14:01:19.503Z,32.10947425892846
2022-09-11T14:04:20.072Z,32.06064946948354
2022-09-11T14:07:23.098Z,32.08249213519885
2022-09-11T14:11:25.820Z,31.993836642281167
2022-09-11T14:14:24.257Z,32.09791049063351
2022-09-11T14:17:20.370Z,32.11975316531643
2022-09-11T14:21:24.131Z,32.11525614362845
2022-09-11T14:24:34.227Z,32.08184970377924
2022-09-11T14:29:38.895Z,32.043303826925055
2022-09-11T14:31:30.970Z,32.02788548076724
2022-09-11T14:34:21.524Z,32.102407511462026
2022-09-11T14:37:21.382Z,32.08955888111459
2022-09-11T14:41:20.382Z,32.041376533512086
2022-09-11T14:44:19.112Z,32.066431351073064
2022-09-11T14:47:22.060Z,31.993836642281167
2022-09-11T14:51:18.712Z,32.03302492919547
2022-09-11T14:54:22.223Z,32.04458868922311
2022-09-11T14:57:22.710Z,32.043303826925055
2022-09-11T15:01:18.665Z,32.007327689964676
2022-09-11T15:04:21.422Z,31.950151358780932
2022-09-11T15:07:21.694Z,31.921884421838694
2022-09-11T15:11:18.923Z,31.928308724916132
2022-09-11T15:14:44.770Z,31.922526852125976
2022-09-11T15:17:19.244Z,31.943727054157353
2022-09-11T15:21:19.286Z,31.878199172972018
2022-09-11T15:24:18.805Z,31.767701284404392
2022-09-11T15:27:20.205Z,31.777337722820175
2022-09-11T15:31:21.413Z,31.792113597044953
2022-09-11T15:34:20.210Z,31.714379676998306
2022-09-11T15:37:27.105Z,31.639857964917702
2022-09-11T15:41:22.352Z,31.639857964917702
2022-09-11T15:44:20.947Z,31.6250821154812
2022-09-11T15:47:19.626Z,31.574330303129774
2022-09-11T15:51:20.060Z,31.59039100017144
2022-09-11T15:54:21.255Z,31.49659656961594
2022-09-11T15:57:18.953Z,31.424644743384853
2022-09-11T16:01:21.928Z,31.333420188565288
2022-09-11T16:04:20.306Z,31.27174730204606
2022-09-11T16:07:19.262Z,31.2537593847057
2022-09-11T16:11:20.415Z,31.07195313456259
2022-09-11T16:14:20.656Z,31.11306829707255
2022-09-11T16:17:23.144Z,30.992934983911983
2022-09-11T16:21:22.209Z,30.85545641423705
2022-09-11T16:24:18.750Z,30.84132311514113
2022-09-11T16:27:19.589Z,30.73917797347467
2022-09-11T16:31:18.407Z,30.624184523881194
2022-09-11T16:34:20.348Z,30.574075691984035
2022-09-11T16:37:20.497Z,30.52589414894328
2022-09-11T16:41:24.989Z,30.342804518673802
2022-09-11T16:44:19.025Z,30.31710775801912
2022-09-11T16:47:19.243Z,30.119885362213335
2022-09-11T16:51:19.670Z,30.075558563513916
2022-09-11T16:54:20.053Z,29.862918714273928
2022-09-11T16:57:19.654Z,29.770410899131186
2022-09-11T17:01:20.792Z,29.5616262462514
2022-09-11T17:04:19.072Z,29.411944006112115
2022-09-11T17:07:20.998Z,29.33549694866524
2022-09-11T17:11:21.460Z,29.129925348894904
2022-09-11T17:14:19.857Z,28.86396778262606
2022-09-11T17:17:20.788Z,28.634628188276928
2022-09-11T17:21:20.072Z,28.42327652626118
2022-09-11T17:24:28.994Z,28.241475946353695
2022-09-11T17:27:18.532Z,28.136121713373086
2022-09-11T17:31:19.556Z,27.894578323808766
2022-09-11T17:34:19.022Z,27.724342012604758
2022-09-11T17:37:18.650Z,27.372949580144724
2022-09-11T17:41:19.161Z,27.24832443735586
2022-09-11T17:44:19.633Z,27.119202691587635
2022-09-11T17:47:18.535Z,27.004856224347897
2022-09-11T17:51:21.134Z,26.736977705131086
2022-09-11T17:54:19.631Z,26.650897005923706
2022-09-11T17:57:19.004Z,26.436980398051674
2022-09-11T18:01:20.211Z,26.239766434535067
2022-09-11T18:04:20.270Z,26.131844968191672
2022-09-11T18:07:20.062Z,25.854333215518363
2022-09-11T18:11:18.861Z,25.731637317649803
2022-09-11T18:14:21.188Z,25.660332447988274
2022-09-11T18:17:21.258Z,25.544703048716563
2022-09-11T18:21:19.731Z,25.33335858303217
2022-09-11T18:24:22.310Z,25.122656991723126
2022-09-11T18:27:20.938Z,25.000604464441132
2022-09-11T18:31:46.157Z,24.930584930787973
2022-09-11T18:34:22.394Z,24.84771784608929
2022-09-11T18:37:19.791Z,24.81688360133303
2022-09-11T18:41:18.694Z,24.60682558774797
2022-09-11T18:44:21.885Z,24.44366159469728
2022-09-11T18:47:19.215Z,24.346662667012787
2022-09-11T18:51:24.620Z,24.265723243799584
2022-09-11T18:54:20.009Z,24.114122613618385
2022-09-11T18:57:18.034Z,24.02162065860466
2022-09-11T19:01:21.330Z,23.830835674196077
2022-09-11T19:04:18.903Z,23.68694423413772
2022-09-11T19:07:20.280Z,23.676666282864698
2022-09-11T19:11:20.996Z,23.586091887604926
2022-09-11T19:14:20.429Z,23.512219220821226
2022-09-11T19:17:18.282Z,23.456332982430467
2022-09-11T19:21:20.615Z,23.350341935196866
2022-09-11T19:24:19.840Z,23.322077676843854
2022-09-11T19:27:19.423Z,23.153134679817594
2022-09-11T19:31:23.670Z,23.001535908425286
2022-09-11T19:34:20.713Z,22.933445017261327
2022-09-11T19:37:19.888Z,22.856361051192287
2022-09-11T19:41:20.696Z,22.852506854607782
2022-09-11T19:44:18.958Z,22.725960824345474
2022-09-11T19:47:18.870Z,22.736238667934323
2022-09-11T19:51:20.421Z,22.639241565414704
2022-09-11T19:54:18.318Z,22.63024846182416
2022-09-11T19:57:19.514Z,22.54481402216779
2022-09-11T20:01:21.355Z,22.44653239784675
2022-09-11T20:04:20.672Z,22.352747417686988
2022-09-11T20:07:24.288Z,22.35981340596636
2022-09-11T20:11:25.815Z,22.328337644228306
2022-09-11T20:14:22.661Z,22.19344164616232
2022-09-11T20:17:21.458Z,22.158111775046656
2022-09-11T20:21:19.158Z,22.106722896162047
2022-09-11T20:24:19.478Z,22.075889582801118
2022-09-11T20:27:20.608Z,22.010368826697324
2022-09-11T20:31:22.892Z,21.932643285220546
2022-09-11T20:34:21.170Z,21.860699041701444
2022-09-11T20:37:20.466Z,21.767557025447694
2022-09-11T20:41:19.482Z,21.729657887580107
2022-09-11T20:44:18.357Z,21.636516005840623
2022-09-11T20:47:18.207Z,21.57420735211963
2022-09-11T20:51:20.121Z,21.558148427683136
2022-09-11T20:54:18.833Z,21.521534090595377
2022-09-11T20:57:17.747Z,21.450232529193546
2022-09-11T21:01:22.247Z,21.39177813776805
2022-09-11T21:04:18.684Z,21.350667379540756
2022-09-11T21:07:19.351Z,21.24660585602396
2022-09-11T21:11:18.567Z,21.235043471889004
2022-09-11T21:14:19.504Z,21.118135003955103
2022-09-11T21:17:19.121Z,21.08023613733976
2022-09-11T21:21:17.975Z,21.084090258645393
2022-09-11T21:24:17.720Z,21.04619140625
2022-09-11T21:27:18.004Z,20.959473752691064
2022-09-11T21:31:17.664Z,20.980029040855243
2022-09-11T21:34:18.759Z,20.911939666646596
2022-09-11T21:37:23.484Z,20.89395380274518
2022-09-11T21:41:17.602Z,20.859909141550087
2022-09-11T21:44:18.249Z,20.85733973367642
2022-09-11T21:47:18.806Z,20.818156272618307
2022-09-11T21:51:18.747Z,20.81558686592698
2022-09-11T21:54:17.108Z,20.723730624508242
2022-09-11T21:57:17.123Z,20.70381774527641
2022-09-11T22:01:16.651Z,20.68133546752506
2022-09-11T22:04:16.548Z,20.5836982116336
2022-09-11T22:07:19.393Z,20.597829913220266
2022-09-11T22:11:17.504Z,20.61196161700791
2022-09-11T22:14:20.537Z,20.582413511598496
2022-09-11T22:17:16.373Z,20.511755037680267
2022-09-11T22:21:17.815Z,20.551580716212992
2022-09-11T22:24:18.566Z,20.49184220496909
2022-09-11T22:27:17.216Z,20.5104703386638
2022-09-11T22:31:19.714Z,20.49184220496909
2022-09-11T22:34:19.926Z,20.452016552657096
2022-09-11T22:37:17.414Z,20.441096618786467
2022-09-11T22:41:17.614Z,20.367226512412252
2022-09-11T22:44:16.795Z,20.34924075648605
2022-09-11T22:47:17.595Z,20.293356466178373
2022-09-11T22:51:19.163Z,20.25160385795325
2022-09-11T22:54:17.078Z,20.232333429867957
2022-09-11T22:57:16.997Z,20.197646669628103
2022-09-11T23:01:21.136Z,20.188011460803683
2022-09-11T23:04:16.687Z,20.11221452040227
2022-09-11T23:07:17.027Z,20.1051487071506
2022-09-11T23:11:18.233Z,20.14047777891137
2022-09-11T23:14:17.380Z,20.111572173720287
2022-09-11T23:17:17.310Z,20.036417643319872
2022-09-11T23:21:16.136Z,20.015862568923332
2022-09-11T23:24:16.905Z,19.96640194024012
2022-09-11T23:27:16.576Z,19.947131572727177
2022-09-11T23:31:20.162Z,19.95162799144746
2022-09-11T23:34:17.235Z,19.920795410411664
2022-09-11T23:37:18.130Z,19.862342004291804
2022-09-11T23:41:16.612Z,19.843714003660715
2022-09-11T23:44:16.887Z,19.75635515517206
2022-09-11T23:47:16.514Z,19.701755917578794
2022-09-11T23:51:17.098Z,19.767275006633373
2022-09-11T23:54:18.352Z,19.71909920125363
2022-09-11T23:57:18.627Z,19.649083743037135
